createdAt,value
2018-01-10T00:00:45.367Z,2.87
2018-01-10T00:02:13.462Z,2.86
2018-01-10T00:03:39.755Z,2.86
2018-01-10T00:05:08.037Z,2.83
2018-01-10T00:06:40.028Z,2.84
2018-01-10T00:08:01.207Z,2.84
2018-01-10T00:09:28.578Z,2.84
2018-01-10T00:10:56.852Z,2.84
2018-01-10T00:12:23.983Z,2.84
2018-01-10T00:13:50.935Z,2.83
2018-01-10T00:15:17.985Z,2.83
2018-01-10T00:16:45.144Z,2.84
2018-01-10T00:18:12.188Z,2.84
2018-01-10T00:19:38.288Z,2.85
2018-01-10T00:21:06.799Z,2.86
2018-01-10T00:22:33.780Z,2.85
2018-01-10T00:23:59.990Z,2.86
2018-01-10T00:25:28.253Z,2.85
2018-01-10T00:26:54.503Z,2.86
2018-01-10T00:28:21.646Z,2.87
2018-01-10T00:29:49.839Z,2.87
2018-01-10T00:31:16.877Z,2.88
2018-01-10T00:32:44.209Z,2.88
2018-01-10T00:34:11.396Z,2.86
2018-01-10T00:35:38.522Z,2.86
2018-01-10T00:37:04.744Z,2.86
2018-01-10T00:38:33.003Z,2.85
2018-01-10T00:40:00.175Z,2.85
2018-01-10T00:41:27.493Z,2.87
2018-01-10T00:42:54.598Z,2.88
2018-01-10T00:44:20.817Z,2.88
2018-01-10T00:45:48.214Z,2.87
2018-01-10T00:47:16.233Z,2.88
2018-01-10T00:48:42.601Z,2.87
2018-01-10T00:50:10.466Z,2.88
2018-01-10T00:51:36.891Z,2.88
2018-01-10T00:53:05.157Z,2.90
2018-01-10T00:54:31.230Z,2.88
2018-01-10T00:55:59.242Z,2.86
2018-01-10T00:57:26.473Z,2.84
2018-01-10T00:58:52.586Z,2.87
2018-01-10T01:00:19.697Z,2.87
2018-01-10T01:01:46.678Z,2.88
2018-01-10T01:03:15.017Z,2.88
2018-01-10T01:04:42.234Z,2.89
2018-01-10T01:06:09.342Z,2.88
2018-01-10T01:07:36.654Z,2.90
2018-01-10T01:09:03.910Z,2.92
2018-01-10T01:10:29.741Z,2.94
2018-01-10T01:11:57.903Z,2.97
2018-01-10T01:13:25.490Z,2.98
2018-01-10T01:14:51.244Z,3.01
2018-01-10T01:16:18.264Z,3.04
2018-01-10T01:17:46.470Z,3.04
2018-01-10T01:19:13.571Z,3.05
2018-01-10T01:20:39.919Z,3.06
2018-01-10T01:22:06.908Z,3.09
2018-01-10T01:23:34.137Z,3.12
2018-01-10T01:25:01.495Z,3.15
2018-01-10T01:26:28.676Z,3.15
2018-01-10T01:27:55.849Z,3.16
2018-01-10T01:29:23.071Z,3.17
2018-01-10T01:30:51.132Z,3.18
2018-01-10T01:32:18.278Z,3.19
2018-01-10T01:33:45.426Z,3.18
2018-01-10T01:35:11.770Z,3.18
2018-01-10T01:36:39.911Z,3.18
2018-01-10T01:38:07.073Z,3.19
2018-01-10T01:39:34.117Z,3.18
2018-01-10T01:41:00.208Z,3.18
2018-01-10T01:42:27.558Z,3.16
2018-01-10T01:43:55.659Z,3.14
2018-01-10T01:45:21.929Z,3.10
2018-01-10T01:46:49.185Z,3.05
2018-01-10T01:48:17.102Z,2.98
2018-01-10T01:49:43.011Z,2.92
2018-01-10T01:51:10.245Z,2.86
2018-01-10T01:52:38.638Z,2.81
2018-01-10T01:54:07.872Z,2.75
2018-01-10T01:55:32.101Z,2.70
2018-01-10T01:57:00.140Z,2.66
2018-01-10T01:58:27.547Z,2.59
2018-01-10T01:59:54.665Z,2.57
2018-01-10T02:01:21.770Z,2.55
2018-01-10T02:02:48.982Z,2.53
2018-01-10T02:04:16.340Z,2.51
2018-01-10T02:05:42.539Z,2.52
2018-01-10T02:07:10.711Z,2.53
2018-01-10T02:08:38.024Z,2.53
2018-01-10T02:10:05.252Z,2.53
2018-01-10T02:11:32.474Z,2.53
2018-01-10T02:12:59.497Z,2.54
2018-01-10T02:14:25.591Z,2.52
2018-01-10T02:15:52.715Z,2.51
2018-01-10T02:17:19.827Z,2.50
2018-01-10T02:18:47.956Z,2.48
2018-01-10T02:20:15.212Z,2.49
2018-01-10T02:21:41.429Z,2.49
2018-01-10T02:23:09.548Z,2.48
2018-01-10T02:24:35.705Z,2.47
2018-01-10T02:26:03.972Z,2.45
2018-01-10T02:27:31.220Z,2.44
2018-01-10T02:28:57.349Z,2.43
2018-01-10T02:30:25.402Z,2.43
2018-01-10T02:31:51.479Z,2.42
2018-01-10T02:33:19.636Z,2.42
2018-01-10T02:34:45.379Z,2.42
2018-01-10T02:36:13.457Z,2.43
2018-01-10T02:37:39.944Z,2.46
2018-01-10T02:39:08.071Z,2.52
2018-01-10T02:40:34.317Z,2.55
2018-01-10T02:42:01.476Z,2.56
2018-01-10T02:43:29.612Z,2.60
2018-01-10T02:44:55.778Z,2.65
2018-01-10T02:46:24.094Z,2.66
2018-01-10T02:47:51.134Z,2.65
2018-01-10T02:49:17.118Z,2.65
2018-01-10T02:50:45.315Z,2.62
2018-01-10T02:52:11.430Z,2.58
2018-01-10T02:53:38.635Z,2.54
2018-01-10T02:55:08.816Z,2.51
2018-01-10T02:56:33.102Z,2.46
2018-01-10T02:58:00.375Z,2.42
2018-01-10T02:59:27.707Z,2.39
2018-01-10T03:00:54.835Z,2.36
2018-01-10T03:02:22.844Z,2.30
2018-01-10T03:03:50.034Z,2.28
2018-01-10T03:05:17.201Z,2.27
2018-01-10T03:06:43.259Z,2.27
2018-01-10T03:08:11.466Z,2.28
2018-01-10T03:09:38.761Z,2.27
2018-01-10T03:11:04.961Z,2.24
2018-01-10T03:12:32.366Z,2.22
2018-01-10T03:14:00.415Z,2.19
2018-01-10T03:15:27.694Z,2.19
2018-01-10T03:16:54.958Z,2.19
2018-01-10T03:18:21.989Z,2.20
2018-01-10T03:19:49.026Z,2.19
2018-01-10T03:21:15.391Z,2.20
2018-01-10T03:22:43.538Z,2.20
2018-01-10T03:24:10.010Z,2.21
2018-01-10T03:25:38.132Z,2.20
2018-01-10T03:27:05.582Z,2.22
2018-01-10T03:28:32.787Z,2.21
2018-01-10T03:29:59.848Z,2.20
2018-01-10T03:31:27.012Z,2.19
2018-01-10T03:32:54.260Z,2.18
2018-01-10T03:34:21.293Z,2.19
2018-01-10T03:35:48.299Z,2.22
2018-01-10T03:37:14.569Z,2.23
2018-01-10T03:38:41.799Z,2.23
2018-01-10T03:40:08.963Z,2.23
2018-01-10T03:41:36.931Z,2.22
2018-01-10T03:43:04.164Z,2.20
2018-01-10T03:44:31.240Z,2.22
2018-01-10T03:45:58.443Z,2.22
2018-01-10T03:47:25.418Z,2.24
2018-01-10T03:48:52.495Z,2.24
2018-01-10T03:50:18.723Z,2.25
2018-01-10T03:51:45.928Z,2.26
2018-01-10T03:53:14.104Z,2.26
2018-01-10T03:54:40.211Z,2.24
2018-01-10T03:57:35.245Z,2.24
2018-01-10T03:59:02.441Z,2.24
2018-01-10T04:00:28.625Z,2.24
2018-01-10T04:01:56.781Z,2.25
2018-01-10T04:03:23.111Z,2.25
2018-01-10T04:04:50.219Z,2.25
2018-01-10T04:06:18.173Z,2.23
2018-01-10T04:07:45.642Z,2.27
2018-01-10T04:09:11.938Z,2.30
2018-01-10T04:10:40.100Z,2.30
2018-01-10T04:12:07.147Z,2.27
2018-01-10T04:13:33.370Z,2.26
2018-01-10T04:15:01.595Z,2.27
2018-01-10T04:16:28.780Z,2.28
2018-01-10T04:17:56.041Z,2.28
2018-01-10T04:19:22.347Z,2.29
2018-01-10T04:20:50.321Z,2.28
2018-01-10T04:22:17.531Z,2.29
2018-01-10T04:23:44.633Z,2.27
2018-01-10T04:25:10.700Z,2.27
2018-01-10T04:26:37.863Z,2.29
2018-01-10T04:28:04.967Z,2.31
2018-01-10T04:29:33.228Z,2.33
2018-01-10T04:31:00.355Z,2.36
2018-01-10T04:32:27.477Z,2.39
2018-01-10T04:33:53.785Z,2.43
2018-01-10T04:35:21.911Z,2.44
2018-01-10T04:36:48.234Z,2.42
2018-01-10T04:38:15.247Z,2.39
2018-01-10T04:39:43.252Z,2.36
2018-01-10T04:41:10.536Z,2.34
2018-01-10T04:42:36.771Z,2.32
2018-01-10T04:44:04.660Z,2.30
2018-01-10T04:45:31.772Z,2.29
2018-01-10T04:46:58.809Z,2.29
2018-01-10T04:48:25.158Z,2.29
2018-01-10T04:49:53.092Z,2.32
2018-01-10T04:51:20.432Z,2.34
2018-01-10T04:52:46.461Z,2.35
2018-01-10T04:54:14.695Z,2.36
2018-01-10T04:55:41.865Z,2.37
2018-01-10T04:57:08.230Z,2.38
2018-01-10T04:58:35.995Z,2.39
2018-01-10T05:00:03.132Z,2.41
2018-01-10T05:01:30.330Z,2.41
2018-01-10T05:02:57.677Z,2.43
2018-01-10T05:04:23.838Z,2.42
2018-01-10T05:05:51.015Z,2.42
2018-01-10T05:07:19.039Z,2.44
2018-01-10T05:08:45.465Z,2.44
2018-01-10T05:10:12.735Z,2.45
2018-01-10T05:11:39.915Z,2.45
2018-01-10T05:13:07.069Z,2.45
2018-01-10T05:14:35.240Z,2.46
2018-01-10T05:16:01.429Z,2.48
2018-01-10T05:17:28.607Z,2.51
2018-01-10T05:18:55.841Z,2.52
2018-01-10T05:20:22.866Z,2.53
2018-01-10T05:21:50.929Z,2.54
2018-01-10T05:23:18.049Z,2.55
2018-01-10T05:24:45.173Z,2.55
2018-01-10T05:26:12.285Z,2.55
2018-01-10T05:27:38.736Z,2.56
2018-01-10T05:29:06.968Z,2.57
2018-01-10T05:30:33.190Z,2.59
2018-01-10T05:32:00.570Z,2.61
2018-01-10T05:33:28.593Z,2.62
2018-01-10T05:34:54.794Z,2.65
2018-01-10T05:36:22.706Z,2.66
2018-01-10T05:37:49.116Z,2.69
2018-01-10T05:39:17.246Z,2.71
2018-01-10T05:40:43.378Z,2.69
2018-01-10T05:42:11.434Z,2.69
2018-01-10T05:43:38.238Z,2.66
2018-01-10T05:45:05.357Z,2.63
2018-01-10T05:46:31.196Z,2.61
2018-01-10T05:47:59.553Z,2.61
2018-01-10T05:49:25.474Z,2.62
2018-01-10T05:50:52.496Z,2.61
2018-01-10T05:52:20.308Z,2.62
2018-01-10T05:53:46.303Z,2.63
2018-01-10T05:55:13.546Z,2.67
2018-01-10T05:56:40.675Z,2.70
2018-01-10T05:58:07.751Z,2.74
2018-01-10T05:59:36.079Z,2.75
2018-01-10T06:01:02.312Z,2.74
2018-01-10T06:02:30.523Z,2.71
2018-01-10T06:03:57.727Z,2.70
2018-01-10T06:05:23.824Z,2.69
2018-01-10T06:06:50.946Z,2.71
2018-01-10T06:08:19.098Z,2.69
2018-01-10T06:09:45.524Z,2.67
2018-01-10T06:11:13.691Z,2.68
2018-01-10T06:12:40.840Z,2.68
2018-01-10T06:14:08.053Z,2.72
2018-01-10T06:15:34.291Z,2.76
2018-01-10T06:17:01.446Z,2.82
2018-01-10T06:18:29.477Z,2.85
2018-01-10T06:19:56.894Z,2.88
2018-01-10T06:21:23.843Z,2.89
2018-01-10T06:22:51.241Z,2.89
2018-01-10T06:24:18.216Z,2.90
2018-01-10T06:25:45.610Z,2.91
2018-01-10T06:27:13.117Z,2.89
2018-01-10T06:28:39.414Z,2.92
2018-01-10T06:30:06.600Z,2.95
2018-01-10T06:31:33.686Z,2.92
2018-01-10T06:33:07.050Z,2.89
2018-01-10T06:34:28.026Z,2.86
2018-01-10T06:35:56.089Z,2.85
2018-01-10T06:37:22.324Z,2.86
2018-01-10T06:38:50.461Z,2.85
2018-01-10T06:40:17.603Z,2.83
2018-01-10T06:41:43.931Z,2.82
2018-01-10T06:43:12.376Z,2.79
2018-01-10T06:44:39.625Z,2.75
2018-01-10T06:46:06.542Z,2.74
2018-01-10T06:47:33.632Z,2.76
2018-01-10T06:49:00.828Z,2.77
2018-01-10T06:50:27.935Z,2.75
2018-01-10T06:51:55.006Z,2.74
2018-01-10T06:53:22.242Z,2.75
2018-01-10T06:54:49.459Z,2.79
2018-01-10T06:56:16.745Z,2.82
2018-01-10T06:57:43.819Z,2.85
2018-01-10T06:59:11.065Z,2.84
2018-01-10T07:00:37.430Z,2.86
2018-01-10T07:02:05.377Z,2.89
2018-01-10T07:03:32.615Z,2.95
2018-01-10T07:04:59.624Z,2.97
2018-01-10T07:06:26.892Z,3.01
2018-01-10T07:07:54.044Z,3.02
2018-01-10T07:09:20.250Z,3.03
2018-01-10T07:10:47.224Z,3.04
2018-01-10T07:12:15.198Z,3.04
2018-01-10T07:13:42.533Z,3.05
2018-01-10T07:15:09.872Z,3.05
2018-01-10T07:16:36.133Z,3.05
2018-01-10T07:18:04.153Z,3.08
2018-01-10T07:19:31.103Z,3.10
2018-01-10T07:20:58.497Z,3.11
2018-01-10T07:22:25.747Z,3.14
2018-01-10T07:23:52.982Z,3.15
2018-01-10T07:25:20.190Z,3.16
2018-01-10T07:26:47.302Z,3.15
2018-01-10T07:28:14.613Z,3.15
2018-01-10T07:29:40.941Z,3.13
2018-01-10T07:31:08.074Z,3.04
2018-01-10T07:32:36.306Z,2.99
2018-01-10T07:34:02.494Z,2.96
2018-01-10T07:35:29.655Z,2.93
2018-01-10T07:36:57.335Z,2.89
2018-01-10T07:38:24.512Z,2.85
2018-01-10T07:39:51.655Z,2.83
2018-01-10T07:41:17.842Z,2.81
2018-01-10T07:42:44.966Z,2.83
2018-01-10T07:44:12.025Z,2.87
2018-01-10T07:45:39.392Z,2.92
2018-01-10T07:47:07.411Z,2.97
2018-01-10T07:48:34.645Z,3.00
2018-01-10T07:50:01.937Z,3.00
2018-01-10T07:51:29.210Z,2.99
2018-01-10T07:52:55.509Z,2.93
2018-01-10T07:54:22.510Z,2.84
2018-01-10T07:55:50.549Z,2.80
2018-01-10T07:57:17.570Z,2.78
2018-01-10T07:58:43.858Z,2.79
2018-01-10T08:00:11.156Z,2.85
2018-01-10T08:01:38.362Z,2.90
2018-01-10T08:03:05.602Z,2.93
2018-01-10T08:04:33.670Z,2.96
2018-01-10T08:06:00.978Z,3.00
2018-01-10T08:07:27.164Z,3.03
2018-01-10T08:08:54.481Z,3.08
2018-01-10T08:10:21.813Z,3.11
2018-01-10T08:11:49.902Z,3.16
2018-01-10T08:13:17.161Z,3.20
2018-01-10T08:14:44.354Z,3.23
2018-01-10T08:16:11.731Z,3.24
2018-01-10T08:17:37.961Z,3.24
2018-01-10T08:19:05.244Z,3.26
2018-01-10T08:20:32.595Z,3.26
2018-01-10T08:22:00.766Z,3.27
2018-01-10T08:23:27.268Z,3.28
2018-01-10T08:24:55.353Z,3.27
2018-01-10T08:26:22.573Z,3.26
2018-01-10T08:27:49.732Z,3.27
2018-01-10T08:29:16.958Z,3.27
2018-01-10T08:30:43.148Z,3.28
2018-01-10T08:32:11.365Z,3.29
2018-01-10T08:33:37.563Z,3.29
2018-01-10T08:35:05.835Z,3.32
2018-01-10T08:36:32.009Z,3.33
2018-01-10T08:38:00.279Z,3.34
2018-01-10T08:39:26.335Z,3.32
2018-01-10T08:40:54.455Z,3.29
2018-01-10T08:42:20.875Z,3.24
2018-01-10T08:43:48.128Z,3.17
2018-01-10T08:45:15.570Z,3.12
2018-01-10T08:46:43.750Z,3.08
2018-01-10T08:48:10.053Z,3.05
2018-01-10T08:49:37.309Z,3.03
2018-01-10T08:51:05.605Z,3.02
2018-01-10T08:52:31.996Z,3.00
2018-01-10T08:53:59.262Z,2.98
2018-01-10T08:55:27.291Z,2.98
2018-01-10T08:56:53.140Z,2.98
2018-01-10T08:58:20.245Z,2.96
2018-01-10T08:59:47.400Z,2.95
2018-01-10T09:01:14.623Z,3.01
2018-01-10T09:02:41.836Z,2.99
2018-01-10T09:04:09.003Z,2.98
2018-01-10T09:05:37.327Z,2.95
2018-01-10T09:07:04.558Z,2.92
2018-01-10T09:08:30.953Z,2.89
2018-01-10T09:09:58.126Z,2.87
2018-01-10T09:11:25.397Z,2.85
2018-01-10T09:12:52.672Z,2.86
2018-01-10T09:14:20.618Z,2.86
2018-01-10T09:15:46.588Z,2.84
2018-01-10T09:17:14.803Z,2.82
2018-01-10T09:18:40.915Z,2.80
2018-01-10T09:20:08.391Z,2.80
2018-01-10T09:21:35.522Z,2.83
2018-01-10T09:23:03.867Z,2.85
2018-01-10T09:24:31.177Z,2.89
2018-01-10T09:25:58.307Z,2.94
2018-01-10T09:27:24.594Z,2.97
2018-01-10T09:28:52.693Z,2.98
2018-01-10T09:30:19.034Z,3.02
2018-01-10T09:31:47.213Z,3.01
2018-01-10T09:33:13.376Z,3.03
2018-01-10T09:34:41.785Z,3.05
2018-01-10T09:36:09.145Z,3.04
2018-01-10T09:37:36.353Z,3.06
2018-01-10T09:39:02.707Z,3.13
2018-01-10T09:40:30.788Z,3.21
2018-01-10T09:41:57.189Z,3.27
2018-01-10T09:43:25.240Z,3.26
2018-01-10T09:44:52.503Z,3.27
2018-01-10T09:46:19.534Z,3.27
2018-01-10T09:47:45.666Z,3.26
2018-01-10T09:49:12.854Z,3.26
2018-01-10T09:50:41.081Z,3.25
2018-01-10T09:52:07.348Z,3.27
2018-01-10T09:53:34.518Z,3.34
2018-01-10T09:55:01.846Z,3.35
2018-01-10T09:56:29.041Z,3.33
2018-01-10T09:57:56.295Z,3.36
2018-01-10T09:59:23.500Z,3.38
2018-01-10T10:00:51.680Z,3.44
2018-01-10T10:02:18.887Z,3.50
2018-01-10T10:03:45.247Z,3.57
2018-01-10T10:05:12.481Z,3.57
2018-01-10T10:06:39.678Z,3.56
2018-01-10T10:08:07.021Z,3.50
2018-01-10T10:09:35.141Z,3.49
2018-01-10T10:11:02.322Z,3.51
2018-01-10T10:12:29.701Z,3.58
2018-01-10T10:13:56.097Z,3.63
2018-01-10T10:15:23.308Z,3.69
2018-01-10T10:16:50.460Z,3.70
2018-01-10T10:18:18.745Z,3.70
2018-01-10T10:19:45.862Z,3.65
2018-01-10T10:21:13.071Z,3.64
2018-01-10T10:22:40.321Z,3.54
2018-01-10T10:24:07.553Z,3.52
2018-01-10T10:25:34.890Z,3.50
2018-01-10T10:27:02.252Z,3.47
2018-01-10T10:28:29.456Z,3.45
2018-01-10T10:29:56.812Z,3.46
2018-01-10T10:31:23.834Z,3.44
2018-01-10T10:32:50.904Z,3.40
2018-01-10T10:34:17.086Z,3.38
2018-01-10T10:35:44.495Z,3.37
2018-01-10T10:37:11.961Z,3.42
2018-01-10T10:38:38.961Z,3.42
2018-01-10T10:40:06.193Z,3.39
2018-01-10T10:41:33.331Z,3.34
2018-01-10T10:43:01.616Z,3.30
2018-01-10T10:44:27.834Z,3.19
2018-01-10T10:45:55.190Z,3.10
2018-01-10T10:47:23.411Z,3.06
2018-01-10T10:48:50.356Z,3.02
2018-01-10T10:50:16.499Z,3.01
2018-01-10T10:51:44.594Z,2.96
2018-01-10T10:53:11.693Z,2.92
2018-01-10T10:54:38.986Z,2.88
2018-01-10T10:56:07.958Z,2.83
2018-01-10T10:57:33.382Z,2.83
2018-01-10T10:59:00.610Z,2.82
2018-01-10T11:00:27.829Z,2.84
2018-01-10T11:01:54.869Z,2.84
2018-01-10T11:03:21.146Z,2.86
2018-01-10T11:04:49.200Z,2.86
2018-01-10T11:06:16.465Z,2.84
2018-01-10T11:07:42.603Z,2.85
2018-01-10T11:09:09.862Z,2.84
2018-01-10T11:10:38.174Z,2.80
2018-01-10T11:12:04.314Z,2.76
2018-01-10T11:13:32.368Z,2.77
2018-01-10T11:14:58.597Z,2.78
2018-01-10T11:16:25.787Z,2.82
2018-01-10T11:17:52.829Z,2.85
2018-01-10T11:19:19.908Z,2.93
2018-01-10T11:20:48.098Z,3.01
2018-01-10T11:22:15.463Z,3.02
2018-01-10T11:23:41.800Z,3.03
2018-01-10T11:25:09.068Z,3.06
2018-01-10T11:26:36.325Z,3.10
2018-01-10T11:28:03.732Z,3.10
2018-01-10T11:29:30.938Z,3.13
2018-01-10T11:30:58.184Z,3.08
2018-01-10T11:32:25.424Z,3.02
2018-01-10T11:33:53.344Z,2.97
2018-01-10T11:35:19.645Z,2.94
2018-01-10T11:36:46.712Z,2.93
2018-01-10T11:38:14.914Z,2.94
2018-01-10T11:39:41.272Z,2.93
2018-01-10T11:41:09.332Z,2.92
2018-01-10T11:42:36.685Z,2.92
2018-01-10T11:44:02.665Z,2.91
2018-01-10T11:45:29.141Z,2.91
2018-01-10T11:46:57.251Z,2.92
2018-01-10T11:48:24.624Z,2.95
2018-01-10T11:49:50.914Z,2.91
2018-01-10T11:51:18.992Z,2.89
2018-01-10T11:52:45.952Z,2.91
2018-01-10T11:54:12.209Z,2.87
2018-01-10T11:55:39.522Z,2.83
2018-01-10T11:57:06.520Z,2.84
2018-01-10T11:58:34.921Z,2.81
2018-01-10T12:00:00.755Z,2.82
2018-01-10T12:01:28.887Z,2.80
2018-01-10T12:02:55.082Z,2.85
2018-01-10T12:04:23.082Z,2.88
2018-01-10T12:05:49.173Z,2.88
2018-01-10T12:07:17.220Z,2.89
2018-01-10T12:08:44.383Z,2.86
2018-01-10T12:10:10.460Z,2.90
2018-01-10T12:11:38.777Z,2.95
2018-01-10T12:13:07.997Z,2.95
2018-01-10T12:14:32.315Z,2.96
2018-01-10T12:16:00.506Z,2.96
2018-01-10T12:17:27.578Z,2.97
2018-01-10T12:18:53.564Z,2.98
2018-01-10T12:20:21.607Z,2.94
2018-01-10T12:21:48.717Z,2.91
2018-01-10T12:23:17.810Z,2.91
2018-01-10T12:24:41.704Z,2.85
2018-01-10T12:26:08.910Z,2.87
2018-01-10T12:27:37.135Z,2.85
2018-01-10T12:29:03.351Z,2.86
2018-01-10T12:30:30.557Z,2.85
2018-01-10T12:31:58.672Z,2.86
2018-01-10T12:33:27.740Z,2.86
2018-01-10T12:34:52.647Z,2.84
2018-01-10T12:36:19.825Z,2.83
2018-01-10T12:37:45.964Z,2.84
2018-01-10T12:39:14.013Z,2.90
2018-01-10T12:40:40.463Z,2.93
2018-01-10T12:42:07.712Z,2.96
2018-01-10T12:43:35.976Z,2.98
2018-01-10T12:45:02.025Z,3.00
2018-01-10T12:46:29.282Z,3.05
2018-01-10T12:47:56.493Z,3.05
2018-01-10T12:49:23.613Z,3.05
2018-01-10T12:50:51.750Z,3.03
2018-01-10T12:52:17.879Z,3.02
2018-01-10T12:53:46.158Z,2.98
2018-01-10T12:55:12.513Z,2.97
2018-01-10T12:56:40.789Z,3.01
2018-01-10T12:58:06.930Z,3.03
2018-01-10T12:59:33.999Z,3.02
2018-01-10T13:01:02.356Z,3.02
2018-01-10T13:02:29.532Z,2.99
2018-01-10T13:03:55.750Z,2.97
2018-01-10T13:05:23.025Z,2.96
2018-01-10T13:06:51.026Z,2.94
2018-01-10T13:08:17.042Z,2.92
2018-01-10T13:09:44.238Z,2.89
2018-01-10T13:11:12.521Z,2.85
2018-01-10T13:12:38.721Z,2.79
2018-01-10T13:14:06.794Z,2.78
2018-01-10T13:15:33.000Z,2.78
2018-01-10T13:17:00.195Z,2.77
2018-01-10T13:18:27.533Z,2.77
2018-01-10T13:19:55.483Z,2.76
2018-01-10T13:21:22.859Z,2.74
2018-01-10T13:22:49.016Z,2.72
2018-01-10T13:24:17.032Z,2.72
2018-01-10T13:25:44.267Z,2.70
2018-01-10T13:27:11.267Z,2.66
2018-01-10T13:30:05.694Z,2.70
2018-01-10T13:31:32.643Z,2.69
2018-01-10T13:32:58.875Z,2.71
2018-01-10T13:34:26.882Z,2.70
2018-01-10T13:35:52.832Z,2.69
2018-01-10T13:37:20.952Z,2.71
2018-01-10T13:38:48.277Z,2.72
2018-01-10T13:40:15.367Z,2.72
2018-01-10T13:41:42.416Z,2.73
2018-01-10T13:43:09.604Z,2.75
2018-01-10T13:44:38.973Z,2.77
2018-01-10T13:46:04.157Z,2.76
2018-01-10T13:47:30.261Z,2.78
2018-01-10T13:48:57.531Z,2.80
2018-01-10T13:50:24.858Z,2.80
2018-01-10T13:51:51.909Z,2.82
2018-01-10T13:53:20.080Z,2.81
2018-01-10T13:54:46.102Z,2.79
2018-01-10T13:56:16.497Z,2.79
2018-01-10T13:57:40.765Z,2.79
2018-01-10T13:59:08.845Z,2.82
2018-01-10T14:00:35.266Z,2.85
2018-01-10T14:02:03.175Z,2.85
2018-01-10T14:03:29.467Z,2.88
2018-01-10T14:04:57.770Z,2.95
2018-01-10T14:06:24.030Z,2.98
2018-01-10T14:07:52.112Z,3.00
2018-01-10T14:09:18.260Z,2.99
2018-01-10T14:10:46.200Z,3.03
2018-01-10T14:12:13.466Z,3.06
2018-01-10T14:13:40.735Z,3.09
2018-01-10T14:15:07.781Z,3.13
2018-01-10T14:16:33.797Z,3.12
2018-01-10T14:18:01.892Z,3.13
2018-01-10T14:19:28.056Z,3.14
2018-01-10T14:20:56.134Z,3.20
2018-01-10T14:22:23.279Z,3.25
2018-01-10T14:23:50.288Z,3.29
2018-01-10T14:25:17.397Z,3.31
2018-01-10T14:26:44.898Z,3.36
2018-01-10T14:28:11.126Z,3.40
2018-01-10T14:29:41.260Z,3.43
2018-01-10T14:31:06.532Z,3.45
2018-01-10T14:32:33.616Z,3.42
2018-01-10T14:34:00.715Z,3.43
2018-01-10T14:35:26.810Z,3.45
2018-01-10T14:36:54.731Z,3.46
2018-01-10T14:38:20.896Z,3.47
2018-01-10T14:39:48.138Z,3.41
2018-01-10T14:41:16.224Z,3.33
2018-01-10T14:42:43.354Z,3.29
2018-01-10T14:44:10.528Z,3.25
2018-01-10T14:45:37.670Z,3.23
2018-01-10T14:47:03.773Z,3.16
2018-01-10T14:48:32.065Z,3.11
2018-01-10T14:49:58.189Z,3.06
2018-01-10T14:51:26.182Z,2.99
2018-01-10T14:52:52.211Z,2.98
2018-01-10T14:54:20.445Z,2.96
2018-01-10T14:55:47.414Z,2.92
2018-01-10T14:57:13.455Z,2.86
2018-01-10T14:58:40.445Z,2.83
2018-01-10T15:00:10.590Z,2.79
2018-01-10T15:01:34.931Z,2.76
2018-01-10T15:03:02.270Z,2.77
2018-01-10T15:04:29.478Z,2.77
2018-01-10T15:05:57.474Z,2.79
2018-01-10T15:07:23.665Z,2.85
2018-01-10T15:08:51.723Z,2.84
2018-01-10T15:10:18.853Z,2.89
2018-01-10T15:11:46.067Z,2.89
2018-01-10T15:13:12.248Z,2.87
2018-01-10T15:14:39.605Z,2.83
2018-01-10T15:16:07.842Z,2.78
2018-01-10T15:17:34.124Z,2.76
2018-01-10T15:19:02.429Z,2.79
2018-01-10T15:20:29.607Z,2.81
2018-01-10T15:21:56.723Z,2.79
2018-01-10T15:23:23.741Z,2.78
2018-01-10T15:24:49.666Z,2.82
2018-01-10T15:26:17.608Z,2.87
2018-01-10T15:27:45.026Z,2.82
2018-01-10T15:29:12.266Z,2.77
2018-01-10T15:30:39.692Z,2.74
2018-01-10T15:32:06.883Z,2.67
2018-01-10T15:33:34.004Z,2.60
2018-01-10T15:35:00.179Z,2.53
2018-01-10T15:36:27.536Z,2.46
2018-01-10T15:37:55.663Z,2.39
2018-01-10T15:39:22.770Z,2.37
2018-01-10T15:40:48.951Z,2.36
2018-01-10T15:42:16.096Z,2.33
2018-01-10T15:43:44.392Z,2.31
2018-01-10T15:45:11.467Z,2.28
2018-01-10T15:48:05.533Z,2.33
2018-01-10T15:49:31.907Z,2.32
2018-01-10T15:50:59.132Z,2.27
2018-01-10T15:52:26.417Z,2.25
2018-01-10T15:53:55.406Z,2.25
2018-01-10T15:55:21.592Z,2.23
2018-01-10T15:56:47.738Z,2.24
2018-01-10T15:58:14.754Z,2.22
2018-01-10T15:59:41.921Z,2.21
2018-01-10T16:01:10.097Z,2.18
2018-01-10T16:02:36.198Z,2.12
2018-01-10T16:04:04.214Z,2.08
2018-01-10T16:05:31.373Z,2.05
2018-01-10T16:06:57.530Z,2.03
2018-01-10T16:08:25.735Z,1.99
2018-01-10T16:09:53.043Z,1.98
2018-01-10T16:11:20.170Z,1.96
2018-01-10T16:12:47.174Z,1.96
2018-01-10T16:14:16.365Z,1.93
2018-01-10T16:15:41.469Z,1.92
2018-01-10T16:17:08.839Z,1.91
2018-01-10T16:18:35.887Z,1.87
2018-01-10T16:20:01.757Z,1.86
2018-01-10T16:21:29.945Z,1.86
2018-01-10T16:22:57.320Z,1.86
2018-01-10T16:24:24.464Z,1.82
2018-01-10T16:25:50.502Z,1.81
2018-01-10T16:27:18.495Z,1.78
2018-01-10T16:28:45.459Z,1.77
2018-01-10T16:30:11.758Z,1.77
2018-01-10T16:31:40.122Z,1.76
2018-01-10T16:33:07.366Z,1.74
2018-01-10T16:34:34.232Z,1.73
2018-01-10T16:36:00.645Z,1.74
2018-01-10T16:37:28.723Z,1.78
2018-01-10T16:38:54.948Z,1.81
2018-01-10T16:40:23.175Z,1.82
2018-01-10T16:41:49.240Z,1.76
2018-01-10T16:43:17.265Z,1.74
2018-01-10T16:44:44.304Z,1.76
2018-01-10T16:46:11.655Z,1.79
2018-01-10T16:47:38.864Z,1.83
2018-01-10T16:49:05.986Z,1.83
2018-01-10T16:50:33.203Z,1.82
2018-01-10T16:52:00.280Z,1.84
2018-01-10T16:53:27.526Z,1.86
2018-01-10T16:54:54.694Z,1.81
2018-01-10T16:56:21.837Z,1.76
2018-01-10T16:57:48.991Z,1.74
2018-01-10T16:59:16.048Z,1.69
2018-01-10T17:00:43.468Z,1.63
2018-01-10T17:02:09.647Z,1.57
2018-01-10T17:03:36.515Z,1.57
2018-01-10T17:05:04.567Z,1.55
2018-01-10T17:06:30.704Z,1.55
2018-01-10T17:07:57.961Z,1.58
2018-01-10T17:09:26.053Z,1.59
2018-01-10T17:10:53.197Z,1.64
2018-01-10T17:12:20.220Z,1.70
2018-01-10T17:13:47.217Z,1.75
2018-01-10T17:15:14.326Z,1.73
2018-01-10T17:16:40.530Z,1.63
2018-01-10T17:18:08.764Z,1.58
2018-01-10T17:19:35.886Z,1.55
2018-01-10T17:21:02.705Z,1.51
2018-01-10T17:22:29.857Z,1.51
2018-01-10T17:23:57.277Z,1.49
2018-01-10T17:25:24.113Z,1.47
2018-01-10T17:26:50.107Z,1.43
2018-01-10T17:28:18.106Z,1.39
2018-01-10T17:29:44.460Z,1.37
2018-01-10T17:31:12.652Z,1.36
2018-01-10T17:32:39.814Z,1.31
2018-01-10T17:34:06.837Z,1.29
2018-01-10T17:35:33.812Z,1.31
2018-01-10T17:37:01.076Z,1.33
2018-01-10T17:38:28.194Z,1.36
2018-01-10T17:39:55.330Z,1.41
2018-01-10T17:41:22.378Z,1.41
2018-01-10T17:42:48.569Z,1.42
2018-01-10T17:44:15.290Z,1.42
2018-01-10T17:45:43.456Z,1.42
2018-01-10T17:47:10.681Z,1.42
2018-01-10T17:48:37.964Z,1.44
2018-01-10T17:50:04.743Z,1.43
2018-01-10T17:51:31.723Z,1.44
2018-01-10T17:52:58.876Z,1.44
2018-01-10T17:54:25.820Z,1.43
2018-01-10T17:55:53.076Z,1.44
2018-01-10T17:57:19.843Z,1.48
2018-01-10T17:58:45.578Z,1.52
2018-01-10T18:00:12.584Z,1.55
2018-01-10T18:01:40.825Z,1.56
2018-01-10T18:03:07.815Z,1.54
2018-01-10T18:04:33.973Z,1.50
2018-01-10T18:06:01.977Z,1.49
2018-01-10T18:07:29.234Z,1.47
2018-01-10T18:08:55.200Z,1.43
2018-01-10T18:10:23.184Z,1.42
2018-01-10T18:11:49.957Z,1.46
2018-01-10T18:13:16.885Z,1.47
2018-01-10T18:14:44.070Z,1.48
2018-01-10T18:16:13.567Z,1.44
2018-01-10T18:17:43.822Z,1.43
2018-01-10T18:19:05.691Z,1.41
2018-01-10T18:20:32.764Z,1.40
2018-01-10T18:21:59.920Z,1.41
2018-01-10T18:23:26.918Z,1.42
2018-01-10T18:24:54.180Z,1.44
2018-01-10T18:26:21.240Z,1.45
2018-01-10T18:27:48.291Z,1.47
2018-01-10T18:29:14.558Z,1.48
2018-01-10T18:30:42.559Z,1.47
2018-01-10T18:32:08.951Z,1.43
2018-01-10T18:33:35.937Z,1.39
2018-01-10T18:35:04.105Z,1.40
2018-01-10T18:36:30.990Z,1.40
2018-01-10T18:37:58.191Z,1.41
2018-01-10T18:39:25.450Z,1.42
2018-01-10T18:40:52.570Z,1.41
2018-01-10T18:42:18.516Z,1.40
2018-01-10T18:43:46.365Z,1.36
2018-01-10T18:45:13.725Z,1.33
2018-01-10T18:46:40.793Z,1.29
2018-01-10T18:48:07.992Z,1.27
2018-01-10T18:49:34.044Z,1.25
2018-01-10T18:51:02.114Z,1.27
2018-01-10T18:52:29.434Z,1.26
2018-01-10T18:53:56.559Z,1.27
2018-01-10T18:55:22.917Z,1.26
2018-01-10T18:56:50.813Z,1.24
2018-01-10T18:58:17.987Z,1.21
2018-01-10T18:59:45.269Z,1.20
2018-01-10T19:01:12.365Z,1.21
2018-01-10T19:02:39.407Z,1.24
2018-01-10T19:04:05.144Z,1.24
2018-01-10T19:05:33.326Z,1.25
2018-01-10T19:07:00.522Z,1.28
2018-01-10T19:08:26.746Z,1.29
2018-01-10T19:09:54.799Z,1.27
2018-01-10T19:11:21.661Z,1.25
2018-01-10T19:12:48.716Z,1.25
2018-01-10T19:14:15.893Z,1.21
2018-01-10T19:15:42.832Z,1.16
2018-01-10T19:17:10.101Z,1.14
2018-01-10T19:18:39.157Z,1.13
2018-01-10T19:20:04.255Z,1.13
2018-01-10T19:21:30.495Z,1.13
2018-01-10T19:22:58.661Z,1.12
2018-01-10T19:24:25.573Z,1.11